createdAt,value
2017-03-22T00:00:00.003Z,0
2017-03-22T00:00:40.400Z,0
2017-03-22T00:01:20.834Z,0
2017-03-22T00:02:01.183Z,0
2017-03-22T00:02:41.623Z,0
2017-03-22T00:03:21.997Z,0
2017-03-22T00:04:02.398Z,0
2017-03-22T00:04:42.773Z,0
2017-03-22T00:05:23.229Z,0
2017-03-22T00:06:03.730Z,0
2017-03-22T00:06:44.188Z,0
2017-03-22T00:07:24.561Z,0
2017-03-22T00:08:05.003Z,0
2017-03-22T00:08:45.371Z,0
2017-03-22T04:16:42.155Z,0
2017-03-22T04:17:30.853Z,0
2017-03-22T04:18:20.139Z,0
2017-03-22T04:19:08.674Z,0
2017-03-22T04:19:57.527Z,0
2017-03-22T04:20:45.726Z,0
2017-03-22T04:21:34.468Z,0
2017-03-22T04:22:23.222Z,0
2017-03-22T04:23:11.526Z,0
2017-03-22T04:23:59.753Z,0
2017-03-22T04:24:48.447Z,0
2017-03-22T04:25:37.121Z,0
2017-03-22T04:26:25.471Z,0
2017-03-22T04:27:14.168Z,0
2017-03-22T04:27:58.573Z,0
2017-03-22T04:28:42.296Z,0
2017-03-22T04:29:22.660Z,0
2017-03-22T04:30:03.101Z,0
2017-03-22T04:30:43.479Z,0
2017-03-22T04:31:23.886Z,0
2017-03-22T04:32:04.362Z,0
2017-03-22T04:32:44.907Z,0
2017-03-22T04:33:26.265Z,0
2017-03-22T04:34:06.709Z,0
2017-03-22T04:34:48.091Z,0
2017-03-22T04:35:29.108Z,0
2017-03-22T04:36:10.422Z,0
2017-03-22T04:36:50.789Z,0
2017-03-22T04:37:33.115Z,0
2017-03-22T04:40:07.915Z,0
2017-03-22T04:40:56.598Z,0
2017-03-22T04:41:48.199Z,0
2017-03-22T04:42:50.932Z,0
2017-03-22T04:43:36.635Z,0
2017-03-22T04:44:17.038Z,0
2017-03-22T04:44:57.487Z,0
2017-03-22T04:45:37.923Z,0
2017-03-22T04:46:18.405Z,0
2017-03-22T04:46:58.799Z,0
2017-03-22T04:47:39.177Z,0
2017-03-22T04:48:19.611Z,0
2017-03-22T04:49:00.789Z,0
2017-03-22T04:49:41.219Z,0
2017-03-22T04:50:21.571Z,0
2017-03-22T04:51:01.931Z,0
2017-03-22T04:51:43.193Z,0
2017-03-22T04:52:25.071Z,0
2017-03-22T04:53:05.513Z,0
2017-03-22T04:53:46.561Z,0
2017-03-22T04:54:27.612Z,0
2017-03-22T04:55:08.000Z,0
2017-03-22T04:55:48.395Z,0
2017-03-22T04:56:28.826Z,0
2017-03-22T04:57:09.248Z,0
2017-03-22T04:57:50.430Z,0
2017-03-22T04:58:30.817Z,0
2017-03-22T04:59:11.910Z,0
2017-03-22T04:59:52.362Z,0
2017-03-22T05:00:32.699Z,0
2017-03-22T05:01:13.739Z,0
2017-03-22T05:01:55.072Z,0
2017-03-22T05:02:35.550Z,0
2017-03-22T05:03:15.977Z,0
2017-03-22T05:03:56.450Z,0
2017-03-22T05:04:36.869Z,0
2017-03-22T05:05:17.338Z,0
2017-03-22T05:05:59.178Z,0
2017-03-22T05:06:40.316Z,0
2017-03-22T05:07:20.758Z,0
2017-03-22T05:08:01.195Z,0
2017-03-22T05:08:41.581Z,0
2017-03-22T05:09:21.972Z,0
2017-03-22T05:10:02.428Z,0
2017-03-22T05:10:42.846Z,0
2017-03-22T05:11:23.226Z,0
2017-03-22T05:12:03.607Z,0
2017-03-22T05:12:44.037Z,0
2017-03-22T05:13:24.455Z,0
2017-03-22T05:14:04.887Z,0
2017-03-22T05:14:45.330Z,0
2017-03-22T05:15:25.755Z,0
2017-03-22T05:16:06.152Z,0
2017-03-22T05:16:46.573Z,0
2017-03-22T05:17:26.993Z,0
2017-03-22T05:18:07.369Z,0
2017-03-22T05:18:47.828Z,0
2017-03-22T05:19:28.188Z,0
2017-03-22T05:20:08.584Z,5
2017-03-22T05:20:49.051Z,5
2017-03-22T05:21:29.472Z,5
2017-03-22T05:22:09.843Z,5
2017-03-22T05:22:50.236Z,5
2017-03-22T05:23:30.634Z,5
2017-03-22T05:24:11.082Z,5
2017-03-22T05:24:51.537Z,5
2017-03-22T05:25:31.925Z,5
2017-03-22T05:26:12.384Z,5
2017-03-22T05:26:52.783Z,10
2017-03-22T05:27:33.482Z,10
2017-03-22T05:28:14.059Z,10
2017-03-22T05:28:54.680Z,10
2017-03-22T05:29:35.217Z,10
2017-03-22T05:30:15.670Z,10
2017-03-22T05:30:56.397Z,10
2017-03-22T05:31:36.846Z,10
2017-03-22T05:32:17.257Z,10
2017-03-22T05:32:57.730Z,10
2017-03-22T05:33:38.401Z,15
2017-03-22T05:34:19.342Z,15
2017-03-22T05:35:00.452Z,15
2017-03-22T05:35:40.869Z,15
2017-03-22T05:36:21.349Z,15
2017-03-22T05:37:01.753Z,15
2017-03-22T05:37:42.111Z,15
2017-03-22T05:38:22.499Z,15
2017-03-22T05:39:03.197Z,15
2017-03-22T05:39:44.611Z,20
2017-03-22T05:40:25.025Z,20
2017-03-22T05:41:05.639Z,20
2017-03-22T05:41:47.555Z,20
2017-03-22T05:42:27.903Z,25
2017-03-22T05:43:09.712Z,25
2017-03-22T05:43:50.124Z,25
2017-03-22T05:44:30.574Z,30
2017-03-22T05:45:11.754Z,30
2017-03-22T05:47:29.578Z,35
2017-03-22T05:48:09.444Z,40
2017-03-22T05:48:49.833Z,40
2017-03-22T05:49:33.002Z,45
2017-03-22T05:50:13.449Z,45
2017-03-22T05:50:59.392Z,45
2017-03-22T05:51:46.565Z,45
2017-03-22T05:52:30.687Z,45
2017-03-22T05:53:13.814Z,45
2017-03-22T05:53:54.212Z,40
2017-03-22T05:54:37.945Z,40
2017-03-22T05:55:18.419Z,40
2017-03-22T05:56:01.478Z,45
2017-03-22T05:56:44.686Z,45
2017-03-22T05:57:29.053Z,45
2017-03-22T05:58:11.088Z,45
2017-03-22T05:58:53.257Z,45
2017-03-22T05:59:37.131Z,50
2017-03-22T06:00:19.509Z,50
2017-03-22T06:01:04.670Z,50
2017-03-22T06:01:45.045Z,50
2017-03-22T06:02:25.559Z,50
2017-03-22T06:03:09.640Z,50
2017-03-22T06:03:55.482Z,50
2017-03-22T06:04:37.663Z,50
2017-03-22T06:05:20.909Z,50
2017-03-22T06:06:06.885Z,55
2017-03-22T06:06:53.893Z,55
2017-03-22T06:07:36.916Z,55
2017-03-22T06:08:18.903Z,55
2017-03-22T06:08:59.303Z,60
2017-03-22T06:09:39.813Z,60
2017-03-22T06:10:20.289Z,65
2017-03-22T06:11:04.142Z,65
2017-03-22T06:11:44.566Z,70
2017-03-22T06:12:24.978Z,70
2017-03-22T06:13:08.062Z,75
2017-03-22T06:13:48.473Z,75
2017-03-22T06:14:28.930Z,75
2017-03-22T06:15:12.875Z,75
2017-03-22T06:15:56.896Z,70
2017-03-22T06:16:39.044Z,70
2017-03-22T06:17:21.437Z,70
2017-03-22T06:18:04.614Z,70
2017-03-22T06:18:46.057Z,70
2017-03-22T06:19:29.166Z,75
2017-03-22T06:20:14.876Z,80
2017-03-22T06:21:01.893Z,80
2017-03-22T06:21:49.025Z,80
2017-03-22T06:22:34.051Z,80
2017-03-22T06:23:18.023Z,75
2017-03-22T06:25:35.464Z,75
2017-03-22T06:26:16.206Z,75
2017-03-22T06:26:57.346Z,70
2017-03-22T06:27:37.885Z,70
2017-03-22T06:28:18.830Z,65
2017-03-22T06:28:59.328Z,60
2017-03-22T06:29:39.776Z,55
2017-03-22T06:30:21.118Z,50
2017-03-22T06:31:02.382Z,45
2017-03-22T06:31:42.751Z,45
2017-03-22T06:32:23.151Z,45
2017-03-22T06:33:03.551Z,45
2017-03-22T06:33:43.948Z,50
2017-03-22T06:34:24.361Z,50
2017-03-22T06:35:04.830Z,55
2017-03-22T06:35:45.955Z,55
2017-03-22T06:36:26.373Z,60
2017-03-22T06:37:10.316Z,60
2017-03-22T06:37:50.684Z,60
2017-03-22T06:38:32.660Z,60
2017-03-22T06:39:13.632Z,55
2017-03-22T06:39:54.031Z,50
2017-03-22T06:40:34.499Z,55
2017-03-22T06:41:14.842Z,60
2017-03-22T06:41:55.230Z,70
2017-03-22T06:42:35.689Z,75
2017-03-22T06:43:16.059Z,75
2017-03-22T06:45:30.429Z,105
2017-03-22T06:46:14.192Z,105
2017-03-22T06:46:55.438Z,120
2017-03-22T06:47:35.866Z,125
2017-03-22T06:48:17.219Z,125
2017-03-22T06:48:58.136Z,125
2017-03-22T06:49:38.528Z,120
2017-03-22T06:50:19.918Z,115
2017-03-22T06:51:00.904Z,115
2017-03-22T06:51:41.902Z,120
2017-03-22T06:52:22.259Z,125
2017-03-22T06:53:05.306Z,140
2017-03-22T06:53:47.143Z,150
2017-03-22T06:54:28.365Z,160
2017-03-22T06:55:08.866Z,170
2017-03-22T06:55:52.651Z,180
2017-03-22T06:56:33.804Z,190
2017-03-22T06:57:15.831Z,195
2017-03-22T06:57:56.222Z,200
2017-03-22T06:58:36.694Z,200
2017-03-22T06:59:17.149Z,205
2017-03-22T06:59:58.131Z,205
2017-03-22T07:00:39.160Z,200
2017-03-22T07:01:21.440Z,205
2017-03-22T07:02:01.854Z,195
2017-03-22T07:02:43.222Z,195
2017-03-22T07:03:26.105Z,190
2017-03-22T07:04:08.311Z,190
2017-03-22T07:04:49.178Z,195
2017-03-22T07:05:32.151Z,205
2017-03-22T07:06:12.587Z,210
2017-03-22T07:06:54.693Z,215
2017-03-22T07:07:35.131Z,220
2017-03-22T07:08:15.516Z,220
2017-03-22T07:08:55.942Z,225
2017-03-22T07:09:36.365Z,235
2017-03-22T07:10:18.142Z,245
2017-03-22T07:10:59.390Z,255
2017-03-22T07:11:39.807Z,265
2017-03-22T07:12:21.090Z,270
2017-03-22T07:13:01.454Z,280
2017-03-22T07:13:41.981Z,285
2017-03-22T07:14:22.477Z,290
2017-03-22T07:15:05.611Z,290
2017-03-22T07:15:46.065Z,295
2017-03-22T07:16:26.497Z,305
2017-03-22T07:17:07.861Z,315
2017-03-22T07:17:48.327Z,320
2017-03-22T07:18:29.747Z,325
2017-03-22T07:19:10.807Z,325
2017-03-22T07:23:02.792Z,340
2017-03-22T07:23:49.310Z,350
2017-03-22T07:24:30.265Z,355
2017-03-22T07:25:14.086Z,360
2017-03-22T07:25:56.160Z,360
2017-03-22T07:26:36.594Z,360
2017-03-22T07:27:17.034Z,360
2017-03-22T07:28:01.179Z,360
2017-03-22T07:28:41.635Z,355
2017-03-22T07:29:26.650Z,355
2017-03-22T07:30:08.134Z,345
2017-03-22T07:30:50.376Z,340
2017-03-22T07:31:31.853Z,330
2017-03-22T07:32:12.271Z,325
2017-03-22T07:32:53.365Z,330
2017-03-22T07:35:28.939Z,390
2017-03-22T07:36:12.709Z,405
2017-03-22T07:36:53.118Z,415
2017-03-22T07:37:38.228Z,420
2017-03-22T07:38:21.124Z,420
2017-03-22T07:39:03.131Z,405
2017-03-22T07:39:43.611Z,390
2017-03-22T07:40:25.972Z,375
2017-03-22T07:41:06.964Z,365
2017-03-22T07:41:48.863Z,355
2017-03-22T07:42:29.338Z,360
2017-03-22T07:43:09.708Z,370
2017-03-22T07:43:51.895Z,385
2017-03-22T07:44:35.298Z,400
2017-03-22T07:45:16.433Z,420
2017-03-22T07:47:35.482Z,455
2017-03-22T07:48:15.764Z,455
2017-03-22T07:48:56.886Z,455
2017-03-22T07:49:38.249Z,455
2017-03-22T07:50:19.257Z,455
2017-03-22T07:51:04.510Z,460
2017-03-22T07:51:48.729Z,460
2017-03-22T07:52:30.118Z,460
2017-03-22T07:53:13.036Z,445
2017-03-22T07:55:28.507Z,415
2017-03-22T07:56:09.293Z,410
2017-03-22T07:56:49.667Z,415
2017-03-22T07:57:30.744Z,425
2017-03-22T07:58:11.183Z,440
2017-03-22T07:58:51.599Z,450
2017-03-22T07:59:34.682Z,455
2017-03-22T08:00:15.666Z,460
2017-03-22T08:00:56.119Z,465
2017-03-22T08:01:36.557Z,465
2017-03-22T08:02:16.962Z,470
2017-03-22T08:02:57.373Z,480
2017-03-22T08:03:37.862Z,495
2017-03-22T08:04:19.080Z,510
2017-03-22T08:04:59.521Z,520
2017-03-22T08:05:39.977Z,515
2017-03-22T08:06:20.426Z,515
2017-03-22T08:07:02.439Z,525
2017-03-22T08:07:43.405Z,535
2017-03-22T08:08:23.872Z,550
2017-03-22T08:09:04.255Z,560
2017-03-22T08:09:44.674Z,565
2017-03-22T08:10:25.647Z,565
2017-03-22T08:11:06.179Z,565
2017-03-22T08:11:47.138Z,550
2017-03-22T08:12:27.554Z,540
2017-03-22T08:13:09.685Z,540
2017-03-22T08:13:50.856Z,555
2017-03-22T08:14:32.137Z,565
2017-03-22T08:15:13.201Z,580
2017-03-22T08:15:54.196Z,595
2017-03-22T08:16:35.282Z,600
2017-03-22T08:17:19.587Z,590
2017-03-22T08:18:00.792Z,570
2017-03-22T08:18:42.151Z,555
2017-03-22T08:19:22.522Z,540
2017-03-22T08:20:02.935Z,550
2017-03-22T08:20:43.959Z,575
2017-03-22T08:21:24.383Z,610
2017-03-22T08:22:04.837Z,635
2017-03-22T08:22:45.332Z,650
2017-03-22T08:23:27.261Z,675
2017-03-22T08:24:08.630Z,680
2017-03-22T08:24:49.601Z,660
2017-03-22T08:25:34.589Z,660
2017-03-22T08:26:15.072Z,630
2017-03-22T08:26:58.265Z,605
2017-03-22T08:27:39.194Z,590
2017-03-22T08:28:22.372Z,580
2017-03-22T08:29:06.706Z,575
2017-03-22T08:29:47.612Z,580
2017-03-22T08:30:28.087Z,585
2017-03-22T08:31:08.529Z,615
2017-03-22T08:31:48.993Z,660
2017-03-22T08:32:30.798Z,675
2017-03-22T08:33:17.605Z,680
2017-03-22T08:34:01.618Z,670
2017-03-22T08:34:42.617Z,665
2017-03-22T08:35:23.864Z,670
2017-03-22T08:36:05.622Z,650
2017-03-22T08:36:48.719Z,650
2017-03-22T08:37:30.128Z,655
2017-03-22T08:38:10.601Z,665
2017-03-22T08:38:51.929Z,680
2017-03-22T08:39:34.136Z,690
2017-03-22T08:40:15.193Z,715
2017-03-22T08:40:57.105Z,745
2017-03-22T08:41:38.437Z,770
2017-03-22T08:42:18.881Z,790
2017-03-22T08:43:04.607Z,795
2017-03-22T08:43:49.612Z,805
2017-03-22T08:44:35.693Z,800
2017-03-22T08:45:20.650Z,795
2017-03-22T08:46:02.681Z,810
2017-03-22T08:46:43.118Z,810
2017-03-22T08:47:23.525Z,830
2017-03-22T08:48:05.634Z,855
2017-03-22T08:48:51.617Z,900
2017-03-22T08:49:32.027Z,930
2017-03-22T08:50:12.415Z,990
2017-03-22T08:50:52.908Z,1185
2017-03-22T08:51:33.307Z,1025
2017-03-22T08:52:13.747Z,955
2017-03-22T08:52:54.109Z,935
2017-03-22T08:53:34.709Z,920
2017-03-22T08:54:15.598Z,890
2017-03-22T08:54:57.868Z,870
2017-03-22T08:55:39.292Z,860
2017-03-22T08:56:19.737Z,825
2017-03-22T08:57:00.794Z,800
2017-03-22T08:57:41.756Z,785
2017-03-22T08:58:22.132Z,790
2017-03-22T08:59:02.567Z,815
2017-03-22T08:59:43.039Z,845
2017-03-22T09:00:24.157Z,860
2017-03-22T09:01:04.681Z,860
2017-03-22T09:01:46.834Z,845
2017-03-22T09:02:27.293Z,835
2017-03-22T09:03:07.669Z,825
2017-03-22T09:03:49.660Z,825
2017-03-22T09:04:31.750Z,830
2017-03-22T09:05:13.647Z,840
2017-03-22T09:05:54.058Z,830
2017-03-22T09:06:34.449Z,790
2017-03-22T09:07:14.881Z,720
2017-03-22T09:07:56.653Z,640
2017-03-22T09:08:37.030Z,600
2017-03-22T09:09:17.483Z,560
2017-03-22T09:09:57.858Z,520
2017-03-22T09:10:38.301Z,505
2017-03-22T09:11:18.710Z,480
2017-03-22T09:11:59.108Z,475
2017-03-22T09:12:39.560Z,495
2017-03-22T09:13:19.930Z,525
2017-03-22T09:14:00.374Z,575
2017-03-22T09:14:40.799Z,620
2017-03-22T09:15:21.197Z,655
2017-03-22T09:16:01.641Z,675
2017-03-22T09:16:42.077Z,740
2017-03-22T09:17:22.437Z,815
2017-03-22T09:18:03.795Z,885
2017-03-22T09:18:44.846Z,840
2017-03-22T09:19:25.183Z,830
2017-03-22T09:20:05.553Z,1045
2017-03-22T09:20:45.950Z,1400
2017-03-22T09:21:27.228Z,1180
2017-03-22T09:22:08.401Z,975
2017-03-22T09:22:48.801Z,870
2017-03-22T09:23:29.217Z,795
2017-03-22T09:24:11.376Z,750
2017-03-22T09:24:51.763Z,810
2017-03-22T09:25:32.214Z,1060
2017-03-22T09:26:12.610Z,1085
2017-03-22T09:26:53.014Z,1040
2017-03-22T09:27:33.463Z,1060
2017-03-22T09:28:13.899Z,1120
2017-03-22T09:28:54.846Z,955
2017-03-22T09:29:35.295Z,810
2017-03-22T09:30:15.723Z,740
2017-03-22T09:30:56.082Z,745
2017-03-22T09:31:36.585Z,810
2017-03-22T09:32:16.942Z,980
2017-03-22T09:32:57.384Z,1315
2017-03-22T09:33:37.802Z,1155
2017-03-22T09:34:18.748Z,1145
2017-03-22T09:36:31.764Z,1610
2017-03-22T09:37:12.179Z,2265
2017-03-22T09:37:53.141Z,2430
2017-03-22T09:38:34.297Z,1870
2017-03-22T09:39:16.394Z,1650
2017-03-22T09:39:56.824Z,1605
2017-03-22T09:40:37.253Z,2905
2017-03-22T09:41:17.669Z,2540
2017-03-22T09:41:58.047Z,1505
2017-03-22T09:42:38.457Z,1410
2017-03-22T09:43:18.858Z,1310
2017-03-22T09:43:59.294Z,1205
2017-03-22T09:44:39.658Z,1290
2017-03-22T09:45:20.064Z,1715
2017-03-22T09:46:02.144Z,2485
2017-03-22T09:46:54.413Z,3405
2017-03-22T09:47:34.841Z,3145
2017-03-22T09:48:15.226Z,2580
2017-03-22T09:48:56.563Z,1720
2017-03-22T09:49:36.939Z,2955
2017-03-22T09:50:17.426Z,3355
2017-03-22T09:50:57.833Z,1950
2017-03-22T09:55:00.201Z,1055
2017-03-22T09:55:40.590Z,920
2017-03-22T09:56:21.763Z,830
2017-03-22T09:57:02.125Z,715
2017-03-22T09:57:42.613Z,660
2017-03-22T09:58:23.574Z,590
2017-03-22T09:59:03.958Z,490
2017-03-22T09:59:44.430Z,415
2017-03-22T10:00:24.824Z,375
2017-03-22T10:01:05.249Z,360
2017-03-22T10:01:46.333Z,345
2017-03-22T10:02:28.591Z,345
2017-03-22T10:03:09.824Z,370
2017-03-22T10:03:51.253Z,400
2017-03-22T10:04:33.252Z,440
2017-03-22T10:05:13.687Z,480
2017-03-22T10:05:54.132Z,545
2017-03-22T10:06:34.547Z,630
2017-03-22T10:07:16.505Z,855
2017-03-22T10:07:56.951Z,1120
2017-03-22T10:08:37.346Z,1215
2017-03-22T10:09:17.741Z,1115
2017-03-22T10:09:58.142Z,1015
2017-03-22T10:10:38.536Z,975
2017-03-22T10:11:18.935Z,970
2017-03-22T10:11:59.382Z,895
2017-03-22T10:12:39.812Z,885
2017-03-22T10:13:20.983Z,1310
2017-03-22T10:14:01.406Z,1400
2017-03-22T10:14:42.574Z,1390
2017-03-22T10:15:23.958Z,1515
2017-03-22T10:16:05.809Z,1695
2017-03-22T10:16:46.342Z,2230
2017-03-22T10:17:27.245Z,2000
2017-03-22T10:18:07.650Z,2155
2017-03-22T10:18:48.574Z,2380
2017-03-22T10:19:28.993Z,2280
2017-03-22T10:20:09.402Z,2285
2017-03-22T10:20:49.969Z,2110
2017-03-22T10:21:30.413Z,2195
2017-03-22T10:22:10.790Z,2500
2017-03-22T10:22:51.226Z,2340
2017-03-22T10:23:31.780Z,2100
2017-03-22T10:24:12.240Z,2000
2017-03-22T10:24:52.642Z,1760
2017-03-22T10:25:34.342Z,1830
2017-03-22T10:26:14.868Z,1675
2017-03-22T10:26:56.159Z,1580
2017-03-22T10:27:36.545Z,1300
2017-03-22T10:28:16.942Z,1330
2017-03-22T10:28:57.400Z,1225
2017-03-22T10:29:38.491Z,1150
2017-03-22T10:30:18.975Z,1145
2017-03-22T10:30:59.365Z,1115
2017-03-22T10:31:39.804Z,1055
2017-03-22T10:32:20.970Z,1015
2017-03-22T10:33:01.414Z,1010
2017-03-22T10:33:42.107Z,1010
2017-03-22T10:34:22.577Z,965
2017-03-22T10:35:03.059Z,895
2017-03-22T10:35:45.756Z,830
2017-03-22T10:36:28.769Z,770
2017-03-22T10:37:09.143Z,700
2017-03-22T10:37:49.574Z,650
2017-03-22T10:38:30.842Z,585
2017-03-22T10:39:12.010Z,520
2017-03-22T10:39:53.397Z,465
2017-03-22T10:40:33.818Z,425
2017-03-22T10:41:15.277Z,395
2017-03-22T10:41:57.438Z,380
2017-03-22T10:42:40.704Z,380
2017-03-22T10:43:22.148Z,395
2017-03-22T10:44:02.336Z,415
2017-03-22T10:44:42.743Z,445
2017-03-22T10:45:23.161Z,500
2017-03-22T10:46:03.626Z,580
2017-03-22T10:46:43.990Z,665
2017-03-22T10:47:25.595Z,715
2017-03-22T10:48:07.485Z,725
2017-03-22T10:48:47.970Z,730
2017-03-22T10:49:28.907Z,765
2017-03-22T10:50:09.322Z,790
2017-03-22T10:50:49.744Z,785
2017-03-22T10:51:30.155Z,765
2017-03-22T10:52:10.944Z,755
2017-03-22T10:52:52.422Z,770
2017-03-22T10:53:32.870Z,800
2017-03-22T10:54:13.747Z,825
2017-03-22T10:54:54.849Z,840
2017-03-22T10:55:35.289Z,815
2017-03-22T10:56:16.274Z,820
2017-03-22T10:56:57.461Z,845
2017-03-22T10:57:37.874Z,865
2017-03-22T10:58:18.288Z,895
2017-03-22T10:58:59.083Z,970
2017-03-22T10:59:42.305Z,1100
2017-03-22T11:00:23.768Z,1160
2017-03-22T11:01:04.224Z,1150
2017-03-22T11:01:45.321Z,1020
2017-03-22T11:02:25.747Z,940
2017-03-22T11:03:06.191Z,920
2017-03-22T11:03:46.617Z,910
2017-03-22T11:04:27.224Z,920
2017-03-22T11:05:08.435Z,915
2017-03-22T11:05:48.828Z,900
2017-03-22T11:06:29.456Z,865
2017-03-22T11:07:09.928Z,860
2017-03-22T11:07:50.328Z,860
2017-03-22T11:08:31.199Z,850
2017-03-22T11:09:12.548Z,855
2017-03-22T11:09:53.012Z,880
2017-03-22T11:10:34.282Z,875
2017-03-22T11:11:15.469Z,825
2017-03-22T11:11:57.409Z,755
2017-03-22T11:12:37.958Z,695
2017-03-22T11:13:18.403Z,645
2017-03-22T11:13:58.866Z,610
2017-03-22T11:14:39.747Z,575
2017-03-22T11:15:20.229Z,535
2017-03-22T11:16:00.583Z,510
2017-03-22T11:16:41.045Z,480
2017-03-22T11:17:22.362Z,465
2017-03-22T11:18:03.520Z,460
2017-03-22T11:18:43.944Z,465
2017-03-22T11:19:24.361Z,475
2017-03-22T11:20:04.725Z,485
2017-03-22T11:20:45.851Z,495
2017-03-22T11:21:27.285Z,500
2017-03-22T11:22:07.729Z,485
2017-03-22T11:22:48.134Z,460
2017-03-22T11:23:28.553Z,440
2017-03-22T11:24:08.943Z,420
2017-03-22T11:24:50.156Z,420
2017-03-22T11:25:30.540Z,415
2017-03-22T11:26:10.970Z,410
2017-03-22T11:26:51.406Z,400
2017-03-22T11:27:33.633Z,385
2017-03-22T11:28:14.038Z,370
2017-03-22T11:28:54.463Z,375
2017-03-22T11:29:34.856Z,375
2017-03-22T11:30:15.331Z,370
2017-03-22T11:30:56.439Z,360
2017-03-22T11:31:37.384Z,355
2017-03-22T11:32:18.301Z,345
2017-03-22T11:32:58.733Z,335
2017-03-22T11:33:39.158Z,325
2017-03-22T11:34:19.552Z,330
2017-03-22T11:34:59.981Z,350
2017-03-22T11:35:40.419Z,360
2017-03-22T11:36:20.817Z,375
2017-03-22T11:37:01.338Z,370
2017-03-22T11:37:41.722Z,370
2017-03-22T11:38:22.129Z,365
2017-03-22T11:39:02.568Z,365
2017-03-22T11:39:42.967Z,360
2017-03-22T11:40:23.371Z,365
2017-03-22T11:41:03.739Z,370
2017-03-22T11:41:44.766Z,370
2017-03-22T11:42:25.856Z,370
2017-03-22T11:43:06.287Z,370
2017-03-22T11:43:46.696Z,375
2017-03-22T11:44:27.140Z,380
2017-03-22T11:45:07.676Z,375
2017-03-22T11:45:48.059Z,350
2017-03-22T11:46:29.359Z,320
2017-03-22T11:47:09.759Z,295
2017-03-22T11:47:51.101Z,280
2017-03-22T11:48:33.415Z,275
2017-03-22T11:49:13.862Z,265
2017-03-22T11:49:54.249Z,260
2017-03-22T11:50:34.649Z,255
2017-03-22T11:51:15.039Z,250
2017-03-22T11:51:55.474Z,245
2017-03-22T11:52:35.935Z,240
2017-03-22T11:53:16.290Z,240
2017-03-22T11:53:56.729Z,240
2017-03-22T11:54:37.163Z,240
2017-03-22T11:55:17.613Z,240
2017-03-22T11:55:59.034Z,240
2017-03-22T11:56:42.292Z,230
2017-03-22T11:57:22.669Z,225
2017-03-22T11:58:03.624Z,220
2017-03-22T11:58:43.993Z,215
2017-03-22T11:59:25.098Z,205
2017-03-22T12:00:05.641Z,200
2017-03-22T12:00:46.042Z,195
2017-03-22T12:01:26.463Z,190
2017-03-22T12:02:06.875Z,185
2017-03-22T12:02:47.260Z,180
2017-03-22T12:03:29.373Z,185
2017-03-22T12:04:10.535Z,190
2017-03-22T12:04:50.864Z,190
2017-03-22T12:05:33.040Z,195
2017-03-22T12:06:14.085Z,205
2017-03-22T12:06:55.121Z,210
2017-03-22T12:07:36.303Z,210
2017-03-22T12:08:18.265Z,215
2017-03-22T12:09:00.428Z,215
2017-03-22T12:09:40.816Z,220
2017-03-22T12:10:21.273Z,225
2017-03-22T12:11:01.645Z,230
2017-03-22T12:11:42.012Z,240
2017-03-22T12:12:22.433Z,250
2017-03-22T12:13:04.274Z,255
2017-03-22T12:13:45.454Z,260
2017-03-22T12:14:25.862Z,260
2017-03-22T12:15:06.305Z,255
2017-03-22T12:15:46.740Z,245
2017-03-22T12:16:27.159Z,240
2017-03-22T12:17:07.608Z,240
2017-03-22T12:17:48.020Z,255
2017-03-22T12:18:28.447Z,265
2017-03-22T12:19:09.775Z,275
2017-03-22T12:19:52.057Z,285
2017-03-22T12:20:32.452Z,295
2017-03-22T12:21:12.890Z,305
2017-03-22T12:21:53.339Z,305
2017-03-22T12:22:33.724Z,300
2017-03-22T12:23:15.084Z,295
2017-03-22T12:23:56.844Z,305
2017-03-22T12:24:39.889Z,310
2017-03-22T12:25:21.799Z,315
2017-03-22T12:26:02.212Z,310
2017-03-22T12:26:42.611Z,315
2017-03-22T12:27:23.021Z,315
2017-03-22T12:28:03.382Z,315
2017-03-22T12:28:44.396Z,295
2017-03-22T12:29:26.816Z,280
2017-03-22T12:30:08.033Z,275
2017-03-22T12:30:48.310Z,270
2017-03-22T12:31:30.305Z,270
2017-03-22T12:32:12.582Z,285
2017-03-22T12:32:53.947Z,285
2017-03-22T12:33:34.425Z,285
2017-03-22T12:34:15.785Z,285
2017-03-22T12:34:58.027Z,295
2017-03-22T12:35:38.447Z,320
2017-03-22T12:36:21.312Z,350
2017-03-22T12:37:03.642Z,365
2017-03-22T12:37:44.030Z,365
2017-03-22T12:38:25.286Z,355
2017-03-22T12:39:05.675Z,350
2017-03-22T12:39:46.970Z,355
2017-03-22T12:40:28.317Z,365
2017-03-22T12:41:08.697Z,380
2017-03-22T12:41:50.214Z,390
2017-03-22T12:42:31.365Z,395
2017-03-22T12:43:12.738Z,385
2017-03-22T12:43:53.711Z,380
2017-03-22T12:44:34.099Z,370
2017-03-22T12:45:14.535Z,360
2017-03-22T12:45:54.997Z,355
2017-03-22T12:46:35.525Z,350
2017-03-22T12:47:18.275Z,355
2017-03-22T12:47:58.713Z,355
2017-03-22T12:48:39.749Z,365
2017-03-22T12:49:20.782Z,375
2017-03-22T12:50:01.230Z,390
2017-03-22T12:50:42.310Z,400
2017-03-22T12:51:22.725Z,410
2017-03-22T12:52:03.787Z,415
2017-03-22T12:52:46.820Z,425
2017-03-22T12:53:27.181Z,425
2017-03-22T12:54:08.166Z,410
2017-03-22T12:54:48.590Z,380
2017-03-22T12:55:29.877Z,380
2017-03-22T12:56:11.101Z,390
2017-03-22T12:56:53.298Z,415
2017-03-22T12:57:33.833Z,440
2017-03-22T12:58:18.852Z,445
2017-03-22T12:59:01.140Z,450
2017-03-22T12:59:41.515Z,445
2017-03-22T13:00:21.940Z,450
2017-03-22T13:01:03.965Z,470
2017-03-22T13:01:46.194Z,500
2017-03-22T13:02:26.571Z,510
2017-03-22T13:03:08.963Z,480
2017-03-22T13:03:49.924Z,440
2017-03-22T13:04:30.381Z,400
2017-03-22T13:05:10.778Z,370
2017-03-22T13:07:28.913Z,290
2017-03-22T13:08:15.902Z,280
2017-03-22T13:09:02.911Z,265
2017-03-22T13:09:43.333Z,260
2017-03-22T13:10:29.597Z,255
2017-03-22T13:11:11.775Z,250
2017-03-22T13:11:53.695Z,240
2017-03-22T13:12:34.154Z,235
2017-03-22T13:13:16.498Z,230
2017-03-22T13:13:59.577Z,230
2017-03-22T13:14:41.047Z,225
2017-03-22T13:15:21.505Z,225
2017-03-22T13:16:01.899Z,225
2017-03-22T13:16:42.365Z,220
2017-03-22T13:17:26.519Z,215
2017-03-22T13:18:06.970Z,215
2017-03-22T13:18:47.408Z,205
2017-03-22T13:19:29.951Z,200
2017-03-22T13:20:13.992Z,190
2017-03-22T13:20:58.113Z,190
2017-03-22T13:21:40.211Z,185
2017-03-22T13:22:20.674Z,190
2017-03-22T13:23:02.180Z,200
2017-03-22T13:23:44.167Z,215
2017-03-22T13:24:26.236Z,230
2017-03-22T13:25:07.656Z,235
2017-03-22T13:25:50.936Z,245
2017-03-22T13:26:34.045Z,245
2017-03-22T13:27:14.418Z,240
2017-03-22T13:28:06.409Z,225
2017-03-22T13:28:46.899Z,210
2017-03-22T13:29:29.952Z,200
2017-03-22T13:30:12.053Z,190
2017-03-22T13:30:52.594Z,180
2017-03-22T13:31:35.726Z,175
2017-03-22T13:32:18.129Z,165
2017-03-22T13:33:01.971Z,160
2017-03-22T13:33:42.419Z,160
2017-03-22T13:34:22.842Z,155
2017-03-22T13:35:03.280Z,155
2017-03-22T13:35:44.695Z,155
2017-03-22T13:36:26.926Z,150
2017-03-22T13:37:08.277Z,150
2017-03-22T13:37:48.691Z,150
2017-03-22T13:38:31.078Z,150
2017-03-22T13:39:14.287Z,150
2017-03-22T13:39:55.664Z,150
2017-03-22T13:40:38.905Z,150
2017-03-22T13:41:25.078Z,150
2017-03-22T13:42:08.017Z,145
2017-03-22T13:42:57.926Z,145
2017-03-22T13:43:40.979Z,140
2017-03-22T13:44:24.372Z,140
2017-03-22T13:45:04.843Z,140
2017-03-22T13:45:45.262Z,140
2017-03-22T13:46:27.540Z,145
2017-03-22T13:47:15.406Z,145
2017-03-22T13:47:57.587Z,145
2017-03-22T13:48:42.690Z,140
2017-03-22T13:49:23.063Z,140
2017-03-22T13:50:12.885Z,135
2017-03-22T13:50:53.414Z,135
2017-03-22T13:51:35.898Z,130
2017-03-22T13:52:20.911Z,130
2017-03-22T13:53:01.313Z,125
2017-03-22T13:53:43.651Z,125
2017-03-22T13:54:25.640Z,125
2017-03-22T13:55:06.041Z,130
2017-03-22T13:55:48.431Z,130
2017-03-22T13:56:31.642Z,130
2017-03-22T13:57:15.075Z,130
2017-03-22T13:57:57.102Z,130
2017-03-22T13:58:37.497Z,130
2017-03-22T13:59:19.681Z,125
2017-03-22T14:00:01.022Z,125
2017-03-22T14:00:48.989Z,125
2017-03-22T14:01:31.278Z,125
2017-03-22T14:02:13.704Z,125
2017-03-22T14:02:54.121Z,125
2017-03-22T14:03:37.394Z,125
2017-03-22T14:04:19.528Z,125
2017-03-22T14:05:01.937Z,125